<?xml version="1.0" encoding="utf-8"?>
<gpx xmlns:xsi="http://www.w3.org/2001/XMLSchema-instance" xmlns:xsd="http://www.w3.org/2001/XMLSchema" version="1.1" creator="Shapelink.com" xmlns="http://www.topografix.com/GPX/1/1" xmlns:gpxtpx="http://www.garmin.com/xmlschemas/TrackPointExtension/v1">
  <metadata>
    <name>Promenad 4.50 km, 2017-03-29</name>
    <desc></desc>
    <author><name>Morten Hedlund</name></author> 
    <time>2017-03-29T16:39:03Z</time>
  </metadata>
  <trk>
    <name>Promenad 4.50 km, 2017-03-29</name>
    <trkseg>
      <trkpt lat="59.026726250079" lon="12.225010705366">
        <ele>95</ele>
        <time>2017-03-29T16:39:32Z</time>
      </trkpt>
      <trkpt lat="59.026718035817" lon="12.225368612496">
        <ele>100.8</ele>
        <time>2017-03-29T16:39:47Z</time>
      </trkpt>
      <trkpt lat="59.026692806298" lon="12.225734398612">
        <ele>110</ele>
        <time>2017-03-29T16:40:02Z</time>
      </trkpt>
      <trkpt lat="59.026609825488" lon="12.226071183354">
        <ele>112.2</ele>
        <time>2017-03-29T16:40:16Z</time>
      </trkpt>
      <trkpt lat="59.026441097841" lon="12.226242425571">
        <ele>116.6</ele>
        <time>2017-03-29T16:40:28Z</time>
      </trkpt>
      <trkpt lat="59.026270107081" lon="12.226356251773">
        <ele>122</ele>
        <time>2017-03-29T16:40:41Z</time>
      </trkpt>
      <trkpt lat="59.026077742476" lon="12.226457840401">
        <ele>123.6</ele>
        <time>2017-03-29T16:40:55Z</time>
      </trkpt>
      <trkpt lat="59.025899794739" lon="12.226589855326">
        <ele>122.2</ele>
        <time>2017-03-29T16:41:07Z</time>
      </trkpt>
      <trkpt lat="59.025713968016" lon="12.226705106451">
        <ele>123.8</ele>
        <time>2017-03-29T16:41:22Z</time>
      </trkpt>
      <trkpt lat="59.025535517365" lon="12.226818429739">
        <ele>125.4</ele>
        <time>2017-03-29T16:41:37Z</time>
      </trkpt>
      <trkpt lat="59.025360168017" lon="12.226919431634">
        <ele>125.2</ele>
        <time>2017-03-29T16:41:51Z</time>
      </trkpt>
      <trkpt lat="59.025184818669" lon="12.227024959755">
        <ele>123.8</ele>
        <time>2017-03-29T16:42:02Z</time>
      </trkpt>
      <trkpt lat="59.024995974462" lon="12.227092014955">
        <ele>123.2</ele>
        <time>2017-03-29T16:42:14Z</time>
      </trkpt>
      <trkpt lat="59.024899834069" lon="12.227115484275">
        <ele>122.6</ele>
        <time>2017-03-29T16:42:21Z</time>
      </trkpt>
      <trkpt lat="59.024765975126" lon="12.227338526634">
        <ele>119</ele>
        <time>2017-03-29T16:42:35Z</time>
      </trkpt>
      <trkpt lat="59.024824061693" lon="12.227687046036">
        <ele>118.8</ele>
        <time>2017-03-29T16:42:51Z</time>
      </trkpt>
      <trkpt lat="59.024838394742" lon="12.228068422486">
        <ele>119</ele>
        <time>2017-03-29T16:43:05Z</time>
      </trkpt>
      <trkpt lat="59.02488466283" lon="12.22833630801">
        <ele>119.2</ele>
        <time>2017-03-29T16:43:16Z</time>
      </trkpt>
      <trkpt lat="59.025047104052" lon="12.228228516776">
        <ele>117.8</ele>
        <time>2017-03-29T16:43:32Z</time>
      </trkpt>
      <trkpt lat="59.025119020754" lon="12.228165736345">
        <ele>116.8</ele>
        <time>2017-03-29T16:43:38Z</time>
      </trkpt>
      <trkpt lat="59.025139807866" lon="12.228213261718">
        <ele>116.4</ele>
        <time>2017-03-29T16:43:40Z</time>
      </trkpt>
      <trkpt lat="59.025217088984" lon="12.228523643475">
        <ele>113.2</ele>
        <time>2017-03-29T16:43:53Z</time>
      </trkpt>
      <trkpt lat="59.025390761952" lon="12.228649036699">
        <ele>108.6</ele>
        <time>2017-03-29T16:44:08Z</time>
      </trkpt>
      <trkpt lat="59.025573487372" lon="12.228669488535">
        <ele>105.2</ele>
        <time>2017-03-29T16:44:22Z</time>
      </trkpt>
      <trkpt lat="59.025760739018" lon="12.228716930089">
        <ele>102.8</ele>
        <time>2017-03-29T16:44:36Z</time>
      </trkpt>
      <trkpt lat="59.025919743661" lon="12.228893620541">
        <ele>103.8</ele>
        <time>2017-03-29T16:44:48Z</time>
      </trkpt>
      <trkpt lat="59.026099786873" lon="12.228934272756">
        <ele>99.8</ele>
        <time>2017-03-29T16:45:04Z</time>
      </trkpt>
      <trkpt lat="59.02627354366" lon="12.228799994718">
        <ele>96.8</ele>
        <time>2017-03-29T16:45:19Z</time>
      </trkpt>
      <trkpt lat="59.026415952141" lon="12.228556332885">
        <ele>92.2</ele>
        <time>2017-03-29T16:45:33Z</time>
      </trkpt>
      <trkpt lat="59.026576465526" lon="12.228387186143">
        <ele>90.4</ele>
        <time>2017-03-29T16:45:46Z</time>
      </trkpt>
      <trkpt lat="59.026756089643" lon="12.228442339045">
        <ele>91.2</ele>
        <time>2017-03-29T16:45:59Z</time>
      </trkpt>
      <trkpt lat="59.026936719588" lon="12.228460863044">
        <ele>89.4</ele>
        <time>2017-03-29T16:46:11Z</time>
      </trkpt>
      <trkpt lat="59.027127323994" lon="12.228566726441">
        <ele>95.6</ele>
        <time>2017-03-29T16:46:23Z</time>
      </trkpt>
      <trkpt lat="59.027308037758" lon="12.228612491615">
        <ele>98.4</ele>
        <time>2017-03-29T16:46:35Z</time>
      </trkpt>
      <trkpt lat="59.027502497838" lon="12.228631267071">
        <ele>102.2</ele>
        <time>2017-03-29T16:46:48Z</time>
      </trkpt>
      <trkpt lat="59.027668208001" lon="12.228771244801">
        <ele>103.6</ele>
        <time>2017-03-29T16:47:01Z</time>
      </trkpt>
      <trkpt lat="59.027665274336" lon="12.229137450012">
        <ele>101</ele>
        <time>2017-03-29T16:47:13Z</time>
      </trkpt>
      <trkpt lat="59.027602996819" lon="12.229492088201">
        <ele>97.6</ele>
        <time>2017-03-29T16:47:27Z</time>
      </trkpt>
      <trkpt lat="59.027495540861" lon="12.229802050863">
        <ele>97.6</ele>
        <time>2017-03-29T16:47:40Z</time>
      </trkpt>
      <trkpt lat="59.027357742425" lon="12.230059794288">
        <ele>94.2</ele>
        <time>2017-03-29T16:47:52Z</time>
      </trkpt>
      <trkpt lat="59.027221201274" lon="12.230294152212">
        <ele>93.2</ele>
        <time>2017-03-29T16:48:04Z</time>
      </trkpt>
      <trkpt lat="59.027084995399" lon="12.230558098243">
        <ele>91.8</ele>
        <time>2017-03-29T16:48:17Z</time>
      </trkpt>
      <trkpt lat="59.026942000185" lon="12.230788935769">
        <ele>89.8</ele>
        <time>2017-03-29T16:48:30Z</time>
      </trkpt>
      <trkpt lat="59.026810069079" lon="12.231028322833">
        <ele>91.4</ele>
        <time>2017-03-29T16:48:42Z</time>
      </trkpt>
      <trkpt lat="59.026669253159" lon="12.231247760975">
        <ele>89.8</ele>
        <time>2017-03-29T16:48:53Z</time>
      </trkpt>
      <trkpt lat="59.026487449748" lon="12.2312791931">
        <ele>86.4</ele>
        <time>2017-03-29T16:49:05Z</time>
      </trkpt>
      <trkpt lat="59.026295168962" lon="12.231309116483">
        <ele>87.8</ele>
        <time>2017-03-29T16:49:18Z</time>
      </trkpt>
      <trkpt lat="59.026127614781" lon="12.231436689001">
        <ele>88.6</ele>
        <time>2017-03-29T16:49:30Z</time>
      </trkpt>
      <trkpt lat="59.025950756691" lon="12.231582031147">
        <ele>86.8</ele>
        <time>2017-03-29T16:49:43Z</time>
      </trkpt>
      <trkpt lat="59.025797870835" lon="12.231791243371">
        <ele>85.4</ele>
        <time>2017-03-29T16:49:56Z</time>
      </trkpt>
      <trkpt lat="59.025670298317" lon="12.232045801674">
        <ele>84.8</ele>
        <time>2017-03-29T16:50:09Z</time>
      </trkpt>
      <trkpt lat="59.025554795735" lon="12.232311591723">
        <ele>82.4</ele>
        <time>2017-03-29T16:50:22Z</time>
      </trkpt>
      <trkpt lat="59.025498301729" lon="12.232486857252">
        <ele>82.8</ele>
        <time>2017-03-29T16:50:30Z</time>
      </trkpt>
      <trkpt lat="59.025491763847" lon="12.232785671987">
        <ele>85.4</ele>
        <time>2017-03-29T16:50:42Z</time>
      </trkpt>
      <trkpt lat="59.025468462165" lon="12.233129413706">
        <ele>85.2</ele>
        <time>2017-03-29T16:50:55Z</time>
      </trkpt>
      <trkpt lat="59.025346840796" lon="12.233394197927">
        <ele>82.6</ele>
        <time>2017-03-29T16:51:07Z</time>
      </trkpt>
      <trkpt lat="59.025175850036" lon="12.233518082409">
        <ele>81.2</ele>
        <time>2017-03-29T16:51:19Z</time>
      </trkpt>
      <trkpt lat="59.024986838191" lon="12.233524871748">
        <ele>80.6</ele>
        <time>2017-03-29T16:51:33Z</time>
      </trkpt>
      <trkpt lat="59.024800089459" lon="12.23359008293">
        <ele>82.4</ele>
        <time>2017-03-29T16:51:46Z</time>
      </trkpt>
      <trkpt lat="59.024620046247" lon="12.233689324626">
        <ele>83.4</ele>
        <time>2017-03-29T16:51:59Z</time>
      </trkpt>
      <trkpt lat="59.0244513186" lon="12.2338105269">
        <ele>83</ele>
        <time>2017-03-29T16:52:12Z</time>
      </trkpt>
      <trkpt lat="59.024285021704" lon="12.233946397499">
        <ele>81.6</ele>
        <time>2017-03-29T16:52:24Z</time>
      </trkpt>
      <trkpt lat="59.02411688079" lon="12.234117136802">
        <ele>82.8</ele>
        <time>2017-03-29T16:52:38Z</time>
      </trkpt>
      <trkpt lat="59.023946309125" lon="12.234297096195">
        <ele>82</ele>
        <time>2017-03-29T16:52:52Z</time>
      </trkpt>
      <trkpt lat="59.023822173186" lon="12.234543440236">
        <ele>80.8</ele>
        <time>2017-03-29T16:53:05Z</time>
      </trkpt>
      <trkpt lat="59.02381848515" lon="12.234902772289">
        <ele>82</ele>
        <time>2017-03-29T16:53:17Z</time>
      </trkpt>
      <trkpt lat="59.023847905619" lon="12.235271743527">
        <ele>83.2</ele>
        <time>2017-03-29T16:53:30Z</time>
      </trkpt>
      <trkpt lat="59.023895850087" lon="12.235625962621">
        <ele>84</ele>
        <time>2017-03-29T16:53:43Z</time>
      </trkpt>
      <trkpt lat="59.023972041558" lon="12.235944642459">
        <ele>85</ele>
        <time>2017-03-29T16:53:55Z</time>
      </trkpt>
      <trkpt lat="59.024012777592" lon="12.236293497137">
        <ele>86.2</ele>
        <time>2017-03-29T16:54:08Z</time>
      </trkpt>
      <trkpt lat="59.024052256341" lon="12.236634975743">
        <ele>87.6</ele>
        <time>2017-03-29T16:54:21Z</time>
      </trkpt>
      <trkpt lat="59.024043203889" lon="12.236887187114">
        <ele>88.6</ele>
        <time>2017-03-29T16:54:30Z</time>
      </trkpt>
      <trkpt lat="59.024060135327" lon="12.236909566787">
        <ele>89.2</ele>
        <time>2017-03-29T16:54:32Z</time>
      </trkpt>
      <trkpt lat="59.024228443879" lon="12.236743186072">
        <ele>93</ele>
        <time>2017-03-29T16:54:45Z</time>
      </trkpt>
      <trkpt lat="59.024301450228" lon="12.236700773658">
        <ele>94.8</ele>
        <time>2017-03-29T16:54:51Z</time>
      </trkpt>
      <trkpt lat="59.024182175791" lon="12.236961450748">
        <ele>95</ele>
        <time>2017-03-29T16:55:02Z</time>
      </trkpt>
      <trkpt lat="59.024088466149" lon="12.237262863872">
        <ele>96.6</ele>
        <time>2017-03-29T16:55:13Z</time>
      </trkpt>
      <trkpt lat="59.024001545846" lon="12.237562516797">
        <ele>95.8</ele>
        <time>2017-03-29T16:55:24Z</time>
      </trkpt>
      <trkpt lat="59.023896772096" lon="12.237718671594">
        <ele>96.4</ele>
        <time>2017-03-29T16:55:32Z</time>
      </trkpt>
      <trkpt lat="59.024001126751" lon="12.23801572613">
        <ele>98.2</ele>
        <time>2017-03-29T16:55:44Z</time>
      </trkpt>
      <trkpt lat="59.024164070887" lon="12.23830993082">
        <ele>105.4</ele>
        <time>2017-03-29T16:55:58Z</time>
      </trkpt>
      <trkpt lat="59.024279657288" lon="12.238606063347">
        <ele>110.2</ele>
        <time>2017-03-29T16:56:09Z</time>
      </trkpt>
      <trkpt lat="59.02438677797" lon="12.23891007486">
        <ele>112</ele>
        <time>2017-03-29T16:56:21Z</time>
      </trkpt>
      <trkpt lat="59.024533796496" lon="12.239120879645">
        <ele>112.8</ele>
        <time>2017-03-29T16:56:35Z</time>
      </trkpt>
      <trkpt lat="59.024704954894" lon="12.239209057233">
        <ele>111.2</ele>
        <time>2017-03-29T16:56:48Z</time>
      </trkpt>
      <trkpt lat="59.02488969197" lon="12.239150300114">
        <ele>107.8</ele>
        <time>2017-03-29T16:57:01Z</time>
      </trkpt>
      <trkpt lat="59.02507325558" lon="12.239097745601">
        <ele>105</ele>
        <time>2017-03-29T16:57:14Z</time>
      </trkpt>
      <trkpt lat="59.02522832073" lon="12.238902112055">
        <ele>105.2</ele>
        <time>2017-03-29T16:57:26Z</time>
      </trkpt>
      <trkpt lat="59.025388834115" lon="12.238747633638">
        <ele>104.4</ele>
        <time>2017-03-29T16:57:38Z</time>
      </trkpt>
      <trkpt lat="59.025570553707" lon="12.238615451075">
        <ele>106</ele>
        <time>2017-03-29T16:57:50Z</time>
      </trkpt>
      <trkpt lat="59.025736096232" lon="12.238452255482">
        <ele>105.6</ele>
        <time>2017-03-29T16:58:03Z</time>
      </trkpt>
      <trkpt lat="59.02591312196" lon="12.238320994928">
        <ele>106.2</ele>
        <time>2017-03-29T16:58:15Z</time>
      </trkpt>
      <trkpt lat="59.026087968394" lon="12.23816827671">
        <ele>107.4</ele>
        <time>2017-03-29T16:58:28Z</time>
      </trkpt>
      <trkpt lat="59.026255271118" lon="12.23800650604">
        <ele>108.2</ele>
        <time>2017-03-29T16:58:41Z</time>
      </trkpt>
      <trkpt lat="59.026419975453" lon="12.237860074247">
        <ele>112</ele>
        <time>2017-03-29T16:58:53Z</time>
      </trkpt>
      <trkpt lat="59.026543021745" lon="12.237622531201">
        <ele>114.6</ele>
        <time>2017-03-29T16:59:06Z</time>
      </trkpt>
      <trkpt lat="59.026602868511" lon="12.237297732576">
        <ele>109.6</ele>
        <time>2017-03-29T16:59:19Z</time>
      </trkpt>
      <trkpt lat="59.026713174315" lon="12.236987015543">
        <ele>111</ele>
        <time>2017-03-29T16:59:31Z</time>
      </trkpt>
      <trkpt lat="59.0268317782" lon="12.236688200808">
        <ele>111.2</ele>
        <time>2017-03-29T16:59:44Z</time>
      </trkpt>
      <trkpt lat="59.026966642971" lon="12.236422746035">
        <ele>112.6</ele>
        <time>2017-03-29T16:59:56Z</time>
      </trkpt>
      <trkpt lat="59.027107710348" lon="12.236196267097">
        <ele>111.2</ele>
        <time>2017-03-29T17:00:08Z</time>
      </trkpt>
      <trkpt lat="59.027273671968" lon="12.236015050419">
        <ele>108</ele>
        <time>2017-03-29T17:00:20Z</time>
      </trkpt>
      <trkpt lat="59.027423707978" lon="12.235800892874">
        <ele>106.2</ele>
        <time>2017-03-29T17:00:32Z</time>
      </trkpt>
      <trkpt lat="59.02753837237" lon="12.235510795315">
        <ele>104.8</ele>
        <time>2017-03-29T17:00:44Z</time>
      </trkpt>
      <trkpt lat="59.02764733707" lon="12.235217931729">
        <ele>104.4</ele>
        <time>2017-03-29T17:00:55Z</time>
      </trkpt>
      <trkpt lat="59.027831655051" lon="12.235113577074">
        <ele>105</ele>
        <time>2017-03-29T17:01:06Z</time>
      </trkpt>
      <trkpt lat="59.028021085991" lon="12.235070242651">
        <ele>104.4</ele>
        <time>2017-03-29T17:01:18Z</time>
      </trkpt>
      <trkpt lat="59.028201883574" lon="12.234986675108">
        <ele>104</ele>
        <time>2017-03-29T17:01:30Z</time>
      </trkpt>
      <trkpt lat="59.028383854623" lon="12.234863628816">
        <ele>103.6</ele>
        <time>2017-03-29T17:01:43Z</time>
      </trkpt>
      <trkpt lat="59.028544284189" lon="12.234702780155">
        <ele>105.4</ele>
        <time>2017-03-29T17:01:54Z</time>
      </trkpt>
      <trkpt lat="59.028705551945" lon="12.234487700601">
        <ele>108.6</ele>
        <time>2017-03-29T17:02:06Z</time>
      </trkpt>
      <trkpt lat="59.028873022307" lon="12.234366833603">
        <ele>109.2</ele>
        <time>2017-03-29T17:02:18Z</time>
      </trkpt>
      <trkpt lat="59.029059268125" lon="12.234330037062">
        <ele>106.2</ele>
        <time>2017-03-29T17:02:30Z</time>
      </trkpt>
      <trkpt lat="59.029247274142" lon="12.234267424269">
        <ele>106.4</ele>
        <time>2017-03-29T17:02:44Z</time>
      </trkpt>
      <trkpt lat="59.029420528015" lon="12.234147563099">
        <ele>109</ele>
        <time>2017-03-29T17:02:57Z</time>
      </trkpt>
      <trkpt lat="59.029609288403" lon="12.234131218394">
        <ele>106</ele>
        <time>2017-03-29T17:03:09Z</time>
      </trkpt>
      <trkpt lat="59.029794696031" lon="12.234155106809">
        <ele>105</ele>
        <time>2017-03-29T17:03:20Z</time>
      </trkpt>
      <trkpt lat="59.02998253441" lon="12.234192406264">
        <ele>103.2</ele>
        <time>2017-03-29T17:03:32Z</time>
      </trkpt>
      <trkpt lat="59.03017028897" lon="12.234144461796">
        <ele>102.6</ele>
        <time>2017-03-29T17:03:45Z</time>
      </trkpt>
      <trkpt lat="59.030336082952" lon="12.233996940356">
        <ele>101.2</ele>
        <time>2017-03-29T17:03:57Z</time>
      </trkpt>
      <trkpt lat="59.03048963936" lon="12.233817567696">
        <ele>99.8</ele>
        <time>2017-03-29T17:04:10Z</time>
      </trkpt>
      <trkpt lat="59.030579409509" lon="12.233488159026">
        <ele>99.4</ele>
        <time>2017-03-29T17:04:23Z</time>
      </trkpt>
      <trkpt lat="59.030692816616" lon="12.233218932398">
        <ele>101.4</ele>
        <time>2017-03-29T17:04:35Z</time>
      </trkpt>
      <trkpt lat="59.030733636469" lon="12.233178950735">
        <ele>101.2</ele>
        <time>2017-03-29T17:04:38Z</time>
      </trkpt>
      <trkpt lat="59.030802535687" lon="12.233041822851">
        <ele>100.8</ele>
        <time>2017-03-29T17:04:44Z</time>
      </trkpt>
      <trkpt lat="59.030987859496" lon="12.233131257724">
        <ele>100</ele>
        <time>2017-03-29T17:04:56Z</time>
      </trkpt>
      <trkpt lat="59.031173350943" lon="12.233181213848">
        <ele>101.6</ele>
        <time>2017-03-29T17:05:08Z</time>
      </trkpt>
      <trkpt lat="59.031364458263" lon="12.233208119747">
        <ele>106</ele>
        <time>2017-03-29T17:05:18Z</time>
      </trkpt>
      <trkpt lat="59.031559840352" lon="12.233201917141">
        <ele>106</ele>
        <time>2017-03-29T17:05:29Z</time>
      </trkpt>
      <trkpt lat="59.031744074514" lon="12.233160510555">
        <ele>103</ele>
        <time>2017-03-29T17:05:42Z</time>
      </trkpt>
      <trkpt lat="59.03192713521" lon="12.233102759264">
        <ele>99.2</ele>
        <time>2017-03-29T17:05:56Z</time>
      </trkpt>
      <trkpt lat="59.032110866458" lon="12.233033357132">
        <ele>95</ele>
        <time>2017-03-29T17:06:09Z</time>
      </trkpt>
      <trkpt lat="59.032289652385" lon="12.232955740738">
        <ele>94.8</ele>
        <time>2017-03-29T17:06:21Z</time>
      </trkpt>
      <trkpt lat="59.032451590693" lon="12.232855912309">
        <ele>93.2</ele>
        <time>2017-03-29T17:06:33Z</time>
      </trkpt>
      <trkpt lat="59.032434575436" lon="12.232490126193">
        <ele>92.8</ele>
        <time>2017-03-29T17:06:46Z</time>
      </trkpt>
      <trkpt lat="59.032400628741" lon="12.232144540456">
        <ele>91.6</ele>
        <time>2017-03-29T17:06:58Z</time>
      </trkpt>
      <trkpt lat="59.032351007893" lon="12.23178881262">
        <ele>91</ele>
        <time>2017-03-29T17:07:11Z</time>
      </trkpt>
      <trkpt lat="59.032302392873" lon="12.231424367608">
        <ele>90.2</ele>
        <time>2017-03-29T17:07:24Z</time>
      </trkpt>
      <trkpt lat="59.032254280767" lon="12.231088672513">
        <ele>92.4</ele>
        <time>2017-03-29T17:07:37Z</time>
      </trkpt>
      <trkpt lat="59.032101394911" lon="12.231000830201">
        <ele>88.6</ele>
        <time>2017-03-29T17:07:50Z</time>
      </trkpt>
      <trkpt lat="59.031964267027" lon="12.231268045173">
        <ele>88.2</ele>
        <time>2017-03-29T17:08:03Z</time>
      </trkpt>
      <trkpt lat="59.031820182166" lon="12.231483543822">
        <ele>87</ele>
        <time>2017-03-29T17:08:14Z</time>
      </trkpt>
      <trkpt lat="59.031634439262" lon="12.231574822713">
        <ele>87.4</ele>
        <time>2017-03-29T17:08:27Z</time>
      </trkpt>
      <trkpt lat="59.031453306403" lon="12.231538026172">
        <ele>88.4</ele>
        <time>2017-03-29T17:08:40Z</time>
      </trkpt>
      <trkpt lat="59.031310646465" lon="12.231310122311">
        <ele>90.6</ele>
        <time>2017-03-29T17:08:52Z</time>
      </trkpt>
      <trkpt lat="59.03117695516" lon="12.231075345292">
        <ele>83.2</ele>
        <time>2017-03-29T17:09:03Z</time>
      </trkpt>
      <trkpt lat="59.031007221685" lon="12.230945425842">
        <ele>83.4</ele>
        <time>2017-03-29T17:09:15Z</time>
      </trkpt>
      <trkpt lat="59.030818377478" lon="12.230856410064">
        <ele>83.6</ele>
        <time>2017-03-29T17:09:27Z</time>
      </trkpt>
      <trkpt lat="59.0306455427" lon="12.230944671471">
        <ele>83.6</ele>
        <time>2017-03-29T17:09:41Z</time>
      </trkpt>
      <trkpt lat="59.030576643482" lon="12.23126913482">
        <ele>82.8</ele>
        <time>2017-03-29T17:09:54Z</time>
      </trkpt>
      <trkpt lat="59.030523418417" lon="12.231617318946">
        <ele>86.2</ele>
        <time>2017-03-29T17:10:08Z</time>
      </trkpt>
      <trkpt lat="59.030357037702" lon="12.231783364385">
        <ele>88.6</ele>
        <time>2017-03-29T17:10:21Z</time>
      </trkpt>
      <trkpt lat="59.030175988662" lon="12.231690576752">
        <ele>85.4</ele>
        <time>2017-03-29T17:10:32Z</time>
      </trkpt>
      <trkpt lat="59.030023354263" lon="12.231479352872">
        <ele>83.6</ele>
        <time>2017-03-29T17:10:44Z</time>
      </trkpt>
      <trkpt lat="59.02990961188" lon="12.231178945576">
        <ele>83.2</ele>
        <time>2017-03-29T17:10:57Z</time>
      </trkpt>
      <trkpt lat="59.029764772648" lon="12.230954394475">
        <ele>82.2</ele>
        <time>2017-03-29T17:11:10Z</time>
      </trkpt>
      <trkpt lat="59.029590177671" lon="12.231043326434">
        <ele>83.6</ele>
        <time>2017-03-29T17:11:23Z</time>
      </trkpt>
      <trkpt lat="59.029421366205" lon="12.231207779312">
        <ele>83</ele>
        <time>2017-03-29T17:11:36Z</time>
      </trkpt>
      <trkpt lat="59.029238892242" lon="12.231362928281">
        <ele>85.8</ele>
        <time>2017-03-29T17:11:52Z</time>
      </trkpt>
      <trkpt lat="59.029215255284" lon="12.231662665025">
        <ele>89</ele>
        <time>2017-03-29T17:12:04Z</time>
      </trkpt>
      <trkpt lat="59.029336709015" lon="12.231503576563">
        <ele>89.2</ele>
        <time>2017-03-29T17:12:17Z</time>
      </trkpt>
      <trkpt lat="59.029315754265" lon="12.23114256813">
        <ele>88.6</ele>
        <time>2017-03-29T17:12:29Z</time>
      </trkpt>
      <trkpt lat="59.029269150901" lon="12.230805196655">
        <ele>89</ele>
        <time>2017-03-29T17:12:40Z</time>
      </trkpt>
      <trkpt lat="59.029238305509" lon="12.230461035841">
        <ele>90.6</ele>
        <time>2017-03-29T17:12:52Z</time>
      </trkpt>
      <trkpt lat="59.02920972323" lon="12.230112516439">
        <ele>91.2</ele>
        <time>2017-03-29T17:13:04Z</time>
      </trkpt>
      <trkpt lat="59.029190780136" lon="12.229765338141">
        <ele>90.8</ele>
        <time>2017-03-29T17:13:17Z</time>
      </trkpt>
      <trkpt lat="59.029159264192" lon="12.229409610305">
        <ele>90.4</ele>
        <time>2017-03-29T17:13:29Z</time>
      </trkpt>
      <trkpt lat="59.029139985822" lon="12.229048098958">
        <ele>92.6</ele>
        <time>2017-03-29T17:13:43Z</time>
      </trkpt>
      <trkpt lat="59.029120539814" lon="12.22869840609">
        <ele>95.4</ele>
        <time>2017-03-29T17:13:56Z</time>
      </trkpt>
      <trkpt lat="59.029090616431" lon="12.228349216136">
        <ele>94</ele>
        <time>2017-03-29T17:14:08Z</time>
      </trkpt>
      <trkpt lat="59.029058262297" lon="12.227978149423">
        <ele>94.2</ele>
        <time>2017-03-29T17:14:21Z</time>
      </trkpt>
      <trkpt lat="59.029043426334" lon="12.227870861103">
        <ele>94.2</ele>
        <time>2017-03-29T17:14:25Z</time>
      </trkpt>
      <trkpt lat="59.029064464903" lon="12.227828532508">
        <ele>94</ele>
        <time>2017-03-29T17:14:27Z</time>
      </trkpt>
      <trkpt lat="59.029248615246" lon="12.227860299909">
        <ele>92</ele>
        <time>2017-03-29T17:14:38Z</time>
      </trkpt>
      <trkpt lat="59.029351964073" lon="12.227856528054">
        <ele>91.6</ele>
        <time>2017-03-29T17:14:45Z</time>
      </trkpt>
      <trkpt lat="59.029427401173" lon="12.227532819076">
        <ele>88.4</ele>
        <time>2017-03-29T17:14:58Z</time>
      </trkpt>
      <trkpt lat="59.029504849929" lon="12.227203494225">
        <ele>87.2</ele>
        <time>2017-03-29T17:15:11Z</time>
      </trkpt>
      <trkpt lat="59.029600152132" lon="12.226903338386">
        <ele>86.6</ele>
        <time>2017-03-29T17:15:23Z</time>
      </trkpt>
      <trkpt lat="59.029703752416" lon="12.22659119643">
        <ele>86</ele>
        <time>2017-03-29T17:15:36Z</time>
      </trkpt>
      <trkpt lat="59.029808945261" lon="12.226284167433">
        <ele>86.2</ele>
        <time>2017-03-29T17:15:49Z</time>
      </trkpt>
      <trkpt lat="59.029919921617" lon="12.226003038507">
        <ele>87</ele>
        <time>2017-03-29T17:16:01Z</time>
      </trkpt>
      <trkpt lat="59.030052020361" lon="12.22573708082">
        <ele>84.4</ele>
        <time>2017-03-29T17:16:14Z</time>
      </trkpt>
      <trkpt lat="59.030187639503" lon="12.22550071124">
        <ele>82.6</ele>
        <time>2017-03-29T17:16:26Z</time>
      </trkpt>
      <trkpt lat="59.030310182881" lon="12.225215223726">
        <ele>82.6</ele>
        <time>2017-03-29T17:16:39Z</time>
      </trkpt>
      <trkpt lat="59.03041587864" lon="12.224929568574">
        <ele>83.2</ele>
        <time>2017-03-29T17:16:51Z</time>
      </trkpt>
      <trkpt lat="59.030532889964" lon="12.224666041638">
        <ele>84</ele>
        <time>2017-03-29T17:17:03Z</time>
      </trkpt>
      <trkpt lat="59.03061955881" lon="12.224359347917">
        <ele>84.4</ele>
        <time>2017-03-29T17:17:15Z</time>
      </trkpt>
      <trkpt lat="59.0307377436" lon="12.224065143227">
        <ele>84</ele>
        <time>2017-03-29T17:17:28Z</time>
      </trkpt>
      <trkpt lat="59.030769762458" lon="12.223996076371">
        <ele>83.8</ele>
        <time>2017-03-29T17:17:31Z</time>
      </trkpt>
      <trkpt lat="59.030880487357" lon="12.223720814775">
        <ele>83.4</ele>
        <time>2017-03-29T17:17:43Z</time>
      </trkpt>
      <trkpt lat="59.030994732654" lon="12.223424682248">
        <ele>83.4</ele>
        <time>2017-03-29T17:17:56Z</time>
      </trkpt>
      <trkpt lat="59.031103362078" lon="12.223119664907">
        <ele>83.2</ele>
        <time>2017-03-29T17:18:09Z</time>
      </trkpt>
      <trkpt lat="59.031210985674" lon="12.222823197104">
        <ele>84</ele>
        <time>2017-03-29T17:18:22Z</time>
      </trkpt>
      <trkpt lat="59.031286925688" lon="12.222505355456">
        <ele>84.8</ele>
        <time>2017-03-29T17:18:35Z</time>
      </trkpt>
      <trkpt lat="59.031372588706" lon="12.222185166876">
        <ele>84.8</ele>
        <time>2017-03-29T17:18:48Z</time>
      </trkpt>
      <trkpt lat="59.031317268166" lon="12.221919376827">
        <ele>84.4</ele>
        <time>2017-03-29T17:19:03Z</time>
      </trkpt>
      <trkpt lat="59.031172345115" lon="12.221703961997">
        <ele>84.6</ele>
        <time>2017-03-29T17:19:15Z</time>
      </trkpt>
      <trkpt lat="59.031022225286" lon="12.221506400614">
        <ele>87.2</ele>
        <time>2017-03-29T17:19:29Z</time>
      </trkpt>
      <trkpt lat="59.030858107684" lon="12.221348569437">
        <ele>87.6</ele>
        <time>2017-03-29T17:19:41Z</time>
      </trkpt>
      <trkpt lat="59.030787532086" lon="12.221336331863">
        <ele>88.6</ele>
        <time>2017-03-29T17:19:48Z</time>
      </trkpt>
      <trkpt lat="59.030713603728" lon="12.221655011701">
        <ele>91.2</ele>
        <time>2017-03-29T17:20:02Z</time>
      </trkpt>
      <trkpt lat="59.030622408656" lon="12.221970171141">
        <ele>92.4</ele>
        <time>2017-03-29T17:20:17Z</time>
      </trkpt>
      <trkpt lat="59.03058016388" lon="12.222318439086">
        <ele>90.4</ele>
        <time>2017-03-29T17:20:29Z</time>
      </trkpt>
      <trkpt lat="59.030513443956" lon="12.222655642923">
        <ele>89.6</ele>
        <time>2017-03-29T17:20:42Z</time>
      </trkpt>
      <trkpt lat="59.030415711002" lon="12.222956553133">
        <ele>90.8</ele>
        <time>2017-03-29T17:20:54Z</time>
      </trkpt>
      <trkpt lat="59.030317642772" lon="12.223065098738">
        <ele>94.8</ele>
        <time>2017-03-29T17:21:01Z</time>
      </trkpt>
      <trkpt lat="59.030156291197" lon="12.222924031361">
        <ele>98.6</ele>
        <time>2017-03-29T17:21:15Z</time>
      </trkpt>
      <trkpt lat="59.029991083948" lon="12.223087813687">
        <ele>97.6</ele>
        <time>2017-03-29T17:21:30Z</time>
      </trkpt>
      <trkpt lat="59.029814980229" lon="12.223237933516">
        <ele>101.2</ele>
        <time>2017-03-29T17:21:44Z</time>
      </trkpt>
      <trkpt lat="59.029635439931" lon="12.223296103902">
        <ele>99</ele>
        <time>2017-03-29T17:21:56Z</time>
      </trkpt>
      <trkpt lat="59.029451038131" lon="12.223358632876">
        <ele>97.8</ele>
        <time>2017-03-29T17:22:09Z</time>
      </trkpt>
      <trkpt lat="59.029265295227" lon="12.223429459931">
        <ele>95.2</ele>
        <time>2017-03-29T17:22:23Z</time>
      </trkpt>
      <trkpt lat="59.029095980847" lon="12.223585027995">
        <ele>98.2</ele>
        <time>2017-03-29T17:22:36Z</time>
      </trkpt>
      <trkpt lat="59.028910237943" lon="12.223723664621">
        <ele>100</ele>
        <time>2017-03-29T17:22:50Z</time>
      </trkpt>
      <trkpt lat="59.028714017664" lon="12.223770938537">
        <ele>99.6</ele>
        <time>2017-03-29T17:23:05Z</time>
      </trkpt>
      <trkpt lat="59.02853414209" lon="12.223868420034">
        <ele>101.6</ele>
        <time>2017-03-29T17:23:17Z</time>
      </trkpt>
      <trkpt lat="59.028359714751" lon="12.224021976442">
        <ele>102</ele>
        <time>2017-03-29T17:23:28Z</time>
      </trkpt>
      <trkpt lat="59.028178665711" lon="12.224069166539">
        <ele>102.6</ele>
        <time>2017-03-29T17:23:42Z</time>
      </trkpt>
      <trkpt lat="59.027989570047" lon="12.2240539953">
        <ele>100.2</ele>
        <time>2017-03-29T17:23:55Z</time>
      </trkpt>
      <trkpt lat="59.027804581514" lon="12.224080901199">
        <ele>98.8</ele>
        <time>2017-03-29T17:24:09Z</time>
      </trkpt>
      <trkpt lat="59.027646750337" lon="12.224245018801">
        <ele>101.2</ele>
        <time>2017-03-29T17:24:22Z</time>
      </trkpt>
      <trkpt lat="59.027463857279" lon="12.224248623018">
        <ele>100.6</ele>
        <time>2017-03-29T17:24:34Z</time>
      </trkpt>
      <trkpt lat="59.02727769528" lon="12.22425851366">
        <ele>103</ele>
        <time>2017-03-29T17:24:48Z</time>
      </trkpt>
      <trkpt lat="59.027195133565" lon="12.224294304373">
        <ele>103.8</ele>
        <time>2017-03-29T17:24:54Z</time>
      </trkpt>
    </trkseg>
  </trk>
</gpx>